sensor_id;sensor_type;location;lat;lon;timestamp;P1;durP1;ratioP1;P2;durP2;ratioP2
19595;SDS011;9945;46.010;8.946;2023-01-06T00:00:30;10.00;;;6.97;;
19595;SDS011;9945;46.010;8.946;2023-01-06T00:02:57;8.53;;;6.67;;
19595;SDS011;9945;46.010;8.946;2023-01-06T00:05:24;9.10;;;6.70;;
19595;SDS011;9945;46.010;8.946;2023-01-06T00:07:53;10.23;;;6.63;;
19595;SDS011;9945;46.010;8.946;2023-01-06T00:10:20;8.73;;;7.20;;
19595;SDS011;9945;46.010;8.946;2023-01-06T00:12:48;8.27;;;7.00;;
19595;SDS011;9945;46.010;8.946;2023-01-06T00:15:16;9.77;;;6.70;;
19595;SDS011;9945;46.010;8.946;2023-01-06T00:17:45;6.90;;;6.13;;
19595;SDS011;9945;46.010;8.946;2023-01-06T00:20:12;9.47;;;6.90;;
19595;SDS011;9945;46.010;8.946;2023-01-06T00:22:39;7.83;;;6.40;;
19595;SDS011;9945;46.010;8.946;2023-01-06T00:25:07;8.10;;;7.27;;
19595;SDS011;9945;46.010;8.946;2023-01-06T00:27:35;11.40;;;7.20;;
19595;SDS011;9945;46.010;8.946;2023-01-06T00:30:03;7.90;;;7.03;;
19595;SDS011;9945;46.010;8.946;2023-01-06T00:32:31;7.07;;;6.03;;
19595;SDS011;9945;46.010;8.946;2023-01-06T00:34:59;7.90;;;6.67;;
19595;SDS011;9945;46.010;8.946;2023-01-06T00:37:26;7.30;;;6.60;;
19595;SDS011;9945;46.010;8.946;2023-01-06T00:39:53;12.87;;;6.77;;
19595;SDS011;9945;46.010;8.946;2023-01-06T00:42:20;7.97;;;6.30;;
19595;SDS011;9945;46.010;8.946;2023-01-06T00:44:49;8.90;;;6.37;;
19595;SDS011;9945;46.010;8.946;2023-01-06T00:47:16;11.00;;;6.97;;
19595;SDS011;9945;46.010;8.946;2023-01-06T00:49:43;9.20;;;6.70;;
19595;SDS011;9945;46.010;8.946;2023-01-06T00:52:12;7.43;;;6.53;;
19595;SDS011;9945;46.010;8.946;2023-01-06T00:54:39;10.67;;;7.07;;
19595;SDS011;9945;46.010;8.946;2023-01-06T00:57:07;10.43;;;7.00;;
19595;SDS011;9945;46.010;8.946;2023-01-06T00:59:34;10.80;;;7.80;;
19595;SDS011;9945;46.010;8.946;2023-01-06T01:02:01;9.03;;;6.87;;
19595;SDS011;9945;46.010;8.946;2023-01-06T01:04:29;10.43;;;7.30;;
19595;SDS011;9945;46.010;8.946;2023-01-06T01:06:55;7.57;;;6.43;;
19595;SDS011;9945;46.010;8.946;2023-01-06T01:09:24;9.77;;;7.20;;
19595;SDS011;9945;46.010;8.946;2023-01-06T01:11:53;7.10;;;6.47;;
19595;SDS011;9945;46.010;8.946;2023-01-06T01:14:36;7.23;;;6.50;;
19595;SDS011;9945;46.010;8.946;2023-01-06T01:17:05;9.50;;;7.10;;
19595;SDS011;9945;46.010;8.946;2023-01-06T01:19:33;8.27;;;6.83;;
19595;SDS011;9945;46.010;8.946;2023-01-06T01:22:00;7.13;;;6.43;;
19595;SDS011;9945;46.010;8.946;2023-01-06T01:24:29;7.00;;;6.40;;
19595;SDS011;9945;46.010;8.946;2023-01-06T01:26:56;9.20;;;6.20;;
19595;SDS011;9945;46.010;8.946;2023-01-06T01:29:23;7.20;;;6.50;;
19595;SDS011;9945;46.010;8.946;2023-01-06T01:31:50;8.20;;;6.23;;
19595;SDS011;9945;46.010;8.946;2023-01-06T01:34:17;7.03;;;6.27;;
19595;SDS011;9945;46.010;8.946;2023-01-06T01:36:45;8.37;;;6.80;;
19595;SDS011;9945;46.010;8.946;2023-01-06T01:39:15;6.77;;;6.17;;
19595;SDS011;9945;46.010;8.946;2023-01-06T01:41:45;7.03;;;6.43;;
19595;SDS011;9945;46.010;8.946;2023-01-06T01:47:29;10.07;;;6.67;;
19595;SDS011;9945;46.010;8.946;2023-01-06T01:50:05;7.33;;;6.50;;
19595;SDS011;9945;46.010;8.946;2023-01-06T01:52:36;6.83;;;5.90;;
19595;SDS011;9945;46.010;8.946;2023-01-06T01:55:04;7.00;;;6.33;;
19595;SDS011;9945;46.010;8.946;2023-01-06T01:57:35;6.80;;;6.10;;
19595;SDS011;9945;46.010;8.946;2023-01-06T02:00:05;6.97;;;6.30;;
19595;SDS011;9945;46.010;8.946;2023-01-06T02:02:34;7.80;;;5.87;;
19595;SDS011;9945;46.010;8.946;2023-01-06T02:05:02;6.73;;;6.13;;
19595;SDS011;9945;46.010;8.946;2023-01-06T02:07:30;9.07;;;6.50;;
19595;SDS011;9945;46.010;8.946;2023-01-06T02:09:59;7.73;;;6.10;;
19595;SDS011;9945;46.010;8.946;2023-01-06T02:12:34;7.60;;;6.37;;
19595;SDS011;9945;46.010;8.946;2023-01-06T02:15:01;10.97;;;6.20;;
19595;SDS011;9945;46.010;8.946;2023-01-06T02:17:36;8.40;;;6.83;;
19595;SDS011;9945;46.010;8.946;2023-01-06T02:20:33;7.63;;;6.93;;
19595;SDS011;9945;46.010;8.946;2023-01-06T02:23:30;8.87;;;6.70;;
19595;SDS011;9945;46.010;8.946;2023-01-06T02:29:22;8.80;;;7.20;;
19595;SDS011;9945;46.010;8.946;2023-01-06T02:32:09;7.70;;;6.90;;
19595;SDS011;9945;46.010;8.946;2023-01-06T02:34:47;10.20;;;6.57;;
19595;SDS011;9945;46.010;8.946;2023-01-06T02:37:29;8.23;;;7.00;;
19595;SDS011;9945;46.010;8.946;2023-01-06T02:40:10;9.40;;;7.03;;
19595;SDS011;9945;46.010;8.946;2023-01-06T02:42:52;9.73;;;8.23;;
19595;SDS011;9945;46.010;8.946;2023-01-06T02:45:31;10.33;;;8.53;;
19595;SDS011;9945;46.010;8.946;2023-01-06T02:48:09;10.17;;;8.40;;
19595;SDS011;9945;46.010;8.946;2023-01-06T02:50:39;10.47;;;8.80;;
19595;SDS011;9945;46.010;8.946;2023-01-06T02:53:09;9.57;;;8.37;;
19595;SDS011;9945;46.010;8.946;2023-01-06T02:55:45;10.20;;;9.03;;
19595;SDS011;9945;46.010;8.946;2023-01-06T02:58:14;10.20;;;9.20;;
19595;SDS011;9945;46.010;8.946;2023-01-06T03:00:49;10.03;;;8.87;;
19595;SDS011;9945;46.010;8.946;2023-01-06T03:03:23;10.90;;;9.80;;
19595;SDS011;9945;46.010;8.946;2023-01-06T03:05:55;11.23;;;9.40;;
19595;SDS011;9945;46.010;8.946;2023-01-06T03:08:27;11.40;;;9.33;;
19595;SDS011;9945;46.010;8.946;2023-01-06T03:10:55;13.87;;;9.80;;
19595;SDS011;9945;46.010;8.946;2023-01-06T03:13:26;11.43;;;8.83;;
19595;SDS011;9945;46.010;8.946;2023-01-06T03:15:58;13.23;;;8.97;;
19595;SDS011;9945;46.010;8.946;2023-01-06T03:18:27;11.17;;;9.10;;
19595;SDS011;9945;46.010;8.946;2023-01-06T03:20:55;12.73;;;9.63;;
19595;SDS011;9945;46.010;8.946;2023-01-06T03:23:25;10.23;;;8.93;;
19595;SDS011;9945;46.010;8.946;2023-01-06T03:25:52;13.03;;;9.27;;
19595;SDS011;9945;46.010;8.946;2023-01-06T03:28:20;10.37;;;8.87;;
19595;SDS011;9945;46.010;8.946;2023-01-06T03:30:47;10.83;;;9.73;;
19595;SDS011;9945;46.010;8.946;2023-01-06T03:33:20;10.10;;;9.07;;
19595;SDS011;9945;46.010;8.946;2023-01-06T03:35:56;13.77;;;9.07;;
19595;SDS011;9945;46.010;8.946;2023-01-06T03:38:34;9.47;;;8.53;;
19595;SDS011;9945;46.010;8.946;2023-01-06T03:41:10;11.33;;;9.37;;
19595;SDS011;9945;46.010;8.946;2023-01-06T03:43:48;10.77;;;8.70;;
19595;SDS011;9945;46.010;8.946;2023-01-06T03:46:24;10.50;;;8.00;;
19595;SDS011;9945;46.010;8.946;2023-01-06T03:48:57;8.97;;;8.07;;
19595;SDS011;9945;46.010;8.946;2023-01-06T03:51:37;9.37;;;8.00;;
19595;SDS011;9945;46.010;8.946;2023-01-06T03:54:12;9.07;;;8.13;;
19595;SDS011;9945;46.010;8.946;2023-01-06T03:56:48;10.10;;;9.00;;
19595;SDS011;9945;46.010;8.946;2023-01-06T03:59:19;10.00;;;9.00;;
19595;SDS011;9945;46.010;8.946;2023-01-06T04:01:48;10.30;;;9.30;;
19595;SDS011;9945;46.010;8.946;2023-01-06T04:04:15;10.50;;;9.37;;
19595;SDS011;9945;46.010;8.946;2023-01-06T04:06:44;12.27;;;10.27;;
19595;SDS011;9945;46.010;8.946;2023-01-06T04:09:11;11.23;;;10.10;;
19595;SDS011;9945;46.010;8.946;2023-01-06T04:11:38;12.77;;;9.77;;
19595;SDS011;9945;46.010;8.946;2023-01-06T04:14:22;10.77;;;9.77;;
19595;SDS011;9945;46.010;8.946;2023-01-06T04:16:49;11.53;;;10.30;;
19595;SDS011;9945;46.010;8.946;2023-01-06T04:19:16;11.83;;;10.33;;
19595;SDS011;9945;46.010;8.946;2023-01-06T04:21:44;12.63;;;11.33;;
19595;SDS011;9945;46.010;8.946;2023-01-06T04:24:11;16.03;;;13.23;;
19595;SDS011;9945;46.010;8.946;2023-01-06T04:26:38;14.53;;;12.87;;
19595;SDS011;9945;46.010;8.946;2023-01-06T04:29:04;14.70;;;12.30;;
19595;SDS011;9945;46.010;8.946;2023-01-06T04:31:31;17.17;;;13.30;;
19595;SDS011;9945;46.010;8.946;2023-01-06T04:33:58;14.90;;;13.30;;
19595;SDS011;9945;46.010;8.946;2023-01-06T04:36:25;16.27;;;14.60;;
19595;SDS011;9945;46.010;8.946;2023-01-06T04:38:53;19.10;;;15.67;;
19595;SDS011;9945;46.010;8.946;2023-01-06T04:41:20;22.23;;;15.87;;
19595;SDS011;9945;46.010;8.946;2023-01-06T04:43:47;22.93;;;16.53;;
19595;SDS011;9945;46.010;8.946;2023-01-06T04:46:14;18.57;;;14.67;;
19595;SDS011;9945;46.010;8.946;2023-01-06T04:48:41;19.63;;;15.33;;
19595;SDS011;9945;46.010;8.946;2023-01-06T04:51:08;18.50;;;15.47;;
19595;SDS011;9945;46.010;8.946;2023-01-06T04:53:36;22.37;;;16.03;;
19595;SDS011;9945;46.010;8.946;2023-01-06T04:56:07;20.67;;;15.97;;
19595;SDS011;9945;46.010;8.946;2023-01-06T04:58:35;17.60;;;14.27;;
19595;SDS011;9945;46.010;8.946;2023-01-06T05:01:03;18.10;;;12.17;;
19595;SDS011;9945;46.010;8.946;2023-01-06T05:03:32;15.20;;;10.90;;
19595;SDS011;9945;46.010;8.946;2023-01-06T05:06:00;17.97;;;11.87;;
19595;SDS011;9945;46.010;8.946;2023-01-06T05:08:28;18.53;;;11.93;;
19595;SDS011;9945;46.010;8.946;2023-01-06T05:10:57;19.80;;;12.10;;
19595;SDS011;9945;46.010;8.946;2023-01-06T05:13:26;27.13;;;12.97;;
19595;SDS011;9945;46.010;8.946;2023-01-06T05:15:53;69.07;;;13.23;;
19595;SDS011;9945;46.010;8.946;2023-01-06T05:18:20;23.53;;;14.20;;
19595;SDS011;9945;46.010;8.946;2023-01-06T05:20:48;63.90;;;15.90;;
19595;SDS011;9945;46.010;8.946;2023-01-06T05:23:16;86.93;;;16.87;;
19595;SDS011;9945;46.010;8.946;2023-01-06T05:25:44;50.03;;;15.97;;
19595;SDS011;9945;46.010;8.946;2023-01-06T05:28:11;19.37;;;15.67;;
19595;SDS011;9945;46.010;8.946;2023-01-06T05:30:40;19.70;;;15.23;;
19595;SDS011;9945;46.010;8.946;2023-01-06T05:33:07;19.80;;;14.17;;
19595;SDS011;9945;46.010;8.946;2023-01-06T05:35:34;17.03;;;14.47;;
19595;SDS011;9945;46.010;8.946;2023-01-06T05:38:01;18.03;;;14.40;;
19595;SDS011;9945;46.010;8.946;2023-01-06T05:40:28;19.30;;;15.73;;
19595;SDS011;9945;46.010;8.946;2023-01-06T05:42:55;16.40;;;14.37;;
19595;SDS011;9945;46.010;8.946;2023-01-06T05:45:22;17.70;;;15.07;;
19595;SDS011;9945;46.010;8.946;2023-01-06T05:47:51;18.67;;;15.30;;
19595;SDS011;9945;46.010;8.946;2023-01-06T05:50:18;17.27;;;14.33;;
19595;SDS011;9945;46.010;8.946;2023-01-06T05:52:45;17.00;;;14.23;;
19595;SDS011;9945;46.010;8.946;2023-01-06T05:55:12;18.77;;;15.60;;
19595;SDS011;9945;46.010;8.946;2023-01-06T05:57:39;39.30;;;15.63;;
19595;SDS011;9945;46.010;8.946;2023-01-06T06:00:06;17.00;;;14.63;;
19595;SDS011;9945;46.010;8.946;2023-01-06T06:02:34;18.43;;;15.97;;
19595;SDS011;9945;46.010;8.946;2023-01-06T06:05:02;18.27;;;15.33;;
19595;SDS011;9945;46.010;8.946;2023-01-06T06:07:29;17.90;;;13.93;;
19595;SDS011;9945;46.010;8.946;2023-01-06T06:09:56;18.23;;;12.13;;
19595;SDS011;9945;46.010;8.946;2023-01-06T06:12:23;15.70;;;10.67;;
19595;SDS011;9945;46.010;8.946;2023-01-06T06:14:50;12.73;;;10.30;;
19595;SDS011;9945;46.010;8.946;2023-01-06T06:17:16;13.97;;;10.70;;
19595;SDS011;9945;46.010;8.946;2023-01-06T06:19:43;12.83;;;10.27;;
19595;SDS011;9945;46.010;8.946;2023-01-06T06:22:12;13.40;;;10.63;;
19595;SDS011;9945;46.010;8.946;2023-01-06T06:24:38;14.80;;;11.13;;
19595;SDS011;9945;46.010;8.946;2023-01-06T06:27:05;20.13;;;17.07;;
19595;SDS011;9945;46.010;8.946;2023-01-06T06:29:32;20.47;;;14.70;;
19595;SDS011;9945;46.010;8.946;2023-01-06T06:31:59;15.10;;;11.10;;
19595;SDS011;9945;46.010;8.946;2023-01-06T06:34:26;32.23;;;12.23;;
19595;SDS011;9945;46.010;8.946;2023-01-06T06:36:53;18.27;;;12.50;;
19595;SDS011;9945;46.010;8.946;2023-01-06T06:39:21;17.67;;;11.70;;
19595;SDS011;9945;46.010;8.946;2023-01-06T06:41:48;16.37;;;12.83;;
19595;SDS011;9945;46.010;8.946;2023-01-06T06:44:15;21.27;;;14.60;;
19595;SDS011;9945;46.010;8.946;2023-01-06T06:46:42;28.33;;;13.87;;
19595;SDS011;9945;46.010;8.946;2023-01-06T06:49:09;18.07;;;13.37;;
19595;SDS011;9945;46.010;8.946;2023-01-06T06:51:36;20.30;;;14.07;;
19595;SDS011;9945;46.010;8.946;2023-01-06T06:54:03;18.53;;;13.77;;
19595;SDS011;9945;46.010;8.946;2023-01-06T06:56:31;34.50;;;15.20;;
19595;SDS011;9945;46.010;8.946;2023-01-06T06:58:58;36.97;;;15.50;;
19595;SDS011;9945;46.010;8.946;2023-01-06T07:01:25;18.87;;;14.20;;
19595;SDS011;9945;46.010;8.946;2023-01-06T07:03:52;19.63;;;14.13;;
19595;SDS011;9945;46.010;8.946;2023-01-06T07:06:20;22.37;;;15.60;;
19595;SDS011;9945;46.010;8.946;2023-01-06T07:08:49;21.17;;;15.53;;
19595;SDS011;9945;46.010;8.946;2023-01-06T07:11:16;21.03;;;16.43;;
19595;SDS011;9945;46.010;8.946;2023-01-06T07:13:45;49.47;;;15.67;;
19595;SDS011;9945;46.010;8.946;2023-01-06T07:16:12;56.23;;;17.37;;
19595;SDS011;9945;46.010;8.946;2023-01-06T07:18:39;25.97;;;16.37;;
19595;SDS011;9945;46.010;8.946;2023-01-06T07:21:06;20.03;;;15.87;;
19595;SDS011;9945;46.010;8.946;2023-01-06T07:23:33;18.10;;;12.97;;
19595;SDS011;9945;46.010;8.946;2023-01-06T07:26:00;14.83;;;10.70;;
19595;SDS011;9945;46.010;8.946;2023-01-06T07:28:28;14.03;;;10.50;;
19595;SDS011;9945;46.010;8.946;2023-01-06T07:30:57;14.30;;;11.17;;
19595;SDS011;9945;46.010;8.946;2023-01-06T07:33:24;13.53;;;10.93;;
19595;SDS011;9945;46.010;8.946;2023-01-06T07:35:51;17.10;;;11.00;;
19595;SDS011;9945;46.010;8.946;2023-01-06T07:38:19;13.83;;;10.97;;
19595;SDS011;9945;46.010;8.946;2023-01-06T07:40:46;15.70;;;12.07;;
19595;SDS011;9945;46.010;8.946;2023-01-06T07:43:13;18.10;;;12.60;;
19595;SDS011;9945;46.010;8.946;2023-01-06T07:45:41;16.40;;;12.50;;
19595;SDS011;9945;46.010;8.946;2023-01-06T07:48:09;15.17;;;12.03;;
19595;SDS011;9945;46.010;8.946;2023-01-06T07:50:36;15.10;;;11.50;;
19595;SDS011;9945;46.010;8.946;2023-01-06T07:53:03;17.83;;;12.63;;
19595;SDS011;9945;46.010;8.946;2023-01-06T07:55:30;20.97;;;12.60;;
19595;SDS011;9945;46.010;8.946;2023-01-06T07:57:56;14.73;;;11.80;;
19595;SDS011;9945;46.010;8.946;2023-01-06T08:00:23;18.83;;;12.17;;
19595;SDS011;9945;46.010;8.946;2023-01-06T08:02:51;17.53;;;11.80;;
19595;SDS011;9945;46.010;8.946;2023-01-06T08:05:19;19.50;;;11.97;;
19595;SDS011;9945;46.010;8.946;2023-01-06T08:07:46;14.50;;;11.40;;
19595;SDS011;9945;46.010;8.946;2023-01-06T08:10:13;17.60;;;13.00;;
19595;SDS011;9945;46.010;8.946;2023-01-06T08:12:40;18.07;;;13.10;;
19595;SDS011;9945;46.010;8.946;2023-01-06T08:15:07;19.83;;;13.63;;
19595;SDS011;9945;46.010;8.946;2023-01-06T08:17:34;19.27;;;13.70;;
19595;SDS011;9945;46.010;8.946;2023-01-06T08:20:01;20.13;;;14.37;;
19595;SDS011;9945;46.010;8.946;2023-01-06T08:22:29;28.13;;;13.90;;
19595;SDS011;9945;46.010;8.946;2023-01-06T08:24:56;18.80;;;14.70;;
19595;SDS011;9945;46.010;8.946;2023-01-06T08:27:23;22.43;;;14.90;;
19595;SDS011;9945;46.010;8.946;2023-01-06T08:29:50;23.27;;;14.60;;
19595;SDS011;9945;46.010;8.946;2023-01-06T08:32:18;19.90;;;14.97;;
19595;SDS011;9945;46.010;8.946;2023-01-06T08:34:45;15.63;;;13.07;;
19595;SDS011;9945;46.010;8.946;2023-01-06T08:37:12;17.57;;;12.80;;
19595;SDS011;9945;46.010;8.946;2023-01-06T08:39:41;16.33;;;13.23;;
19595;SDS011;9945;46.010;8.946;2023-01-06T08:42:08;20.47;;;14.70;;
19595;SDS011;9945;46.010;8.946;2023-01-06T08:44:35;18.93;;;14.17;;
19595;SDS011;9945;46.010;8.946;2023-01-06T08:47:02;18.73;;;14.07;;
19595;SDS011;9945;46.010;8.946;2023-01-06T08:49:29;21.33;;;14.20;;
19595;SDS011;9945;46.010;8.946;2023-01-06T08:51:56;17.53;;;14.50;;
19595;SDS011;9945;46.010;8.946;2023-01-06T08:54:23;19.50;;;15.47;;
19595;SDS011;9945;46.010;8.946;2023-01-06T08:56:51;21.47;;;15.13;;
19595;SDS011;9945;46.010;8.946;2023-01-06T08:59:18;20.67;;;15.73;;
19595;SDS011;9945;46.010;8.946;2023-01-06T09:01:45;20.30;;;15.80;;
19595;SDS011;9945;46.010;8.946;2023-01-06T09:04:12;21.50;;;15.03;;
19595;SDS011;9945;46.010;8.946;2023-01-06T09:06:40;21.40;;;15.47;;
19595;SDS011;9945;46.010;8.946;2023-01-06T09:09:09;19.27;;;14.73;;
19595;SDS011;9945;46.010;8.946;2023-01-06T09:11:37;22.90;;;15.97;;
19595;SDS011;9945;46.010;8.946;2023-01-06T09:14:08;23.53;;;16.03;;
19595;SDS011;9945;46.010;8.946;2023-01-06T09:16:35;24.13;;;16.60;;
19595;SDS011;9945;46.010;8.946;2023-01-06T09:19:02;20.73;;;16.53;;
19595;SDS011;9945;46.010;8.946;2023-01-06T09:21:28;19.40;;;14.87;;
19595;SDS011;9945;46.010;8.946;2023-01-06T09:23:55;35.10;;;17.73;;
19595;SDS011;9945;46.010;8.946;2023-01-06T09:26:22;19.53;;;15.33;;
19595;SDS011;9945;46.010;8.946;2023-01-06T09:28:49;24.07;;;17.50;;
19595;SDS011;9945;46.010;8.946;2023-01-06T09:31:17;22.00;;;15.27;;
19595;SDS011;9945;46.010;8.946;2023-01-06T09:33:45;24.40;;;14.07;;
19595;SDS011;9945;46.010;8.946;2023-01-06T09:36:11;19.47;;;13.67;;
19595;SDS011;9945;46.010;8.946;2023-01-06T09:38:39;17.97;;;14.40;;
19595;SDS011;9945;46.010;8.946;2023-01-06T09:44:10;16.83;;;13.57;;
19595;SDS011;9945;46.010;8.946;2023-01-06T09:46:41;17.40;;;13.67;;
19595;SDS011;9945;46.010;8.946;2023-01-06T09:49:14;19.33;;;13.43;;
19595;SDS011;9945;46.010;8.946;2023-01-06T09:51:49;24.23;;;15.73;;
19595;SDS011;9945;46.010;8.946;2023-01-06T09:54:18;29.57;;;16.67;;
19595;SDS011;9945;46.010;8.946;2023-01-06T09:56:50;17.87;;;14.27;;
19595;SDS011;9945;46.010;8.946;2023-01-06T09:59:21;15.63;;;13.30;;
19595;SDS011;9945;46.010;8.946;2023-01-06T10:01:55;18.17;;;14.30;;
19595;SDS011;9945;46.010;8.946;2023-01-06T10:04:24;15.37;;;12.53;;
19595;SDS011;9945;46.010;8.946;2023-01-06T10:06:56;16.03;;;12.50;;
19595;SDS011;9945;46.010;8.946;2023-01-06T10:09:32;16.90;;;13.30;;
19595;SDS011;9945;46.010;8.946;2023-01-06T10:12:07;17.33;;;14.07;;
19595;SDS011;9945;46.010;8.946;2023-01-06T10:14:46;18.33;;;13.47;;
19595;SDS011;9945;46.010;8.946;2023-01-06T10:20:27;19.43;;;14.57;;
19595;SDS011;9945;46.010;8.946;2023-01-06T10:23:04;18.37;;;14.90;;
19595;SDS011;9945;46.010;8.946;2023-01-06T10:25:47;19.63;;;14.97;;
19595;SDS011;9945;46.010;8.946;2023-01-06T10:28:21;23.63;;;16.87;;
19595;SDS011;9945;46.010;8.946;2023-01-06T10:30:55;18.83;;;15.47;;
19595;SDS011;9945;46.010;8.946;2023-01-06T10:33:26;17.13;;;15.17;;
19595;SDS011;9945;46.010;8.946;2023-01-06T10:35:57;20.17;;;15.73;;
19595;SDS011;9945;46.010;8.946;2023-01-06T10:38:26;20.00;;;15.60;;
19595;SDS011;9945;46.010;8.946;2023-01-06T10:41:01;18.83;;;16.23;;
19595;SDS011;9945;46.010;8.946;2023-01-06T10:43:37;20.97;;;16.57;;
19595;SDS011;9945;46.010;8.946;2023-01-06T10:46:04;22.63;;;17.53;;
19595;SDS011;9945;46.010;8.946;2023-01-06T10:48:32;20.30;;;16.37;;
19595;SDS011;9945;46.010;8.946;2023-01-06T10:51:01;20.33;;;17.10;;
19595;SDS011;9945;46.010;8.946;2023-01-06T10:53:43;25.70;;;17.80;;
19595;SDS011;9945;46.010;8.946;2023-01-06T10:56:10;27.53;;;18.87;;
19595;SDS011;9945;46.010;8.946;2023-01-06T10:58:40;28.50;;;18.70;;
19595;SDS011;9945;46.010;8.946;2023-01-06T11:01:12;24.20;;;16.27;;
19595;SDS011;9945;46.010;8.946;2023-01-06T11:03:42;24.33;;;16.57;;
19595;SDS011;9945;46.010;8.946;2023-01-06T11:06:13;22.37;;;16.80;;
19595;SDS011;9945;46.010;8.946;2023-01-06T11:08:43;21.23;;;16.40;;
19595;SDS011;9945;46.010;8.946;2023-01-06T11:11:11;22.87;;;16.87;;
19595;SDS011;9945;46.010;8.946;2023-01-06T11:13:40;24.60;;;17.93;;
19595;SDS011;9945;46.010;8.946;2023-01-06T11:16:17;22.83;;;17.40;;
19595;SDS011;9945;46.010;8.946;2023-01-06T11:18:50;22.97;;;17.97;;
19595;SDS011;9945;46.010;8.946;2023-01-06T11:21:19;25.00;;;17.47;;
19595;SDS011;9945;46.010;8.946;2023-01-06T11:23:46;22.37;;;17.77;;
19595;SDS011;9945;46.010;8.946;2023-01-06T11:26:15;24.17;;;20.00;;
19595;SDS011;9945;46.010;8.946;2023-01-06T11:28:44;24.97;;;19.50;;
19595;SDS011;9945;46.010;8.946;2023-01-06T11:31:16;22.33;;;19.13;;
19595;SDS011;9945;46.010;8.946;2023-01-06T11:33:46;23.53;;;18.40;;
19595;SDS011;9945;46.010;8.946;2023-01-06T11:36:17;21.37;;;18.53;;
19595;SDS011;9945;46.010;8.946;2023-01-06T11:38:47;27.30;;;19.47;;
19595;SDS011;9945;46.010;8.946;2023-01-06T11:41:24;25.17;;;18.50;;
19595;SDS011;9945;46.010;8.946;2023-01-06T11:43:53;22.93;;;18.60;;
19595;SDS011;9945;46.010;8.946;2023-01-06T11:46:27;24.40;;;19.07;;
19595;SDS011;9945;46.010;8.946;2023-01-06T11:48:57;25.60;;;19.83;;
19595;SDS011;9945;46.010;8.946;2023-01-06T11:51:32;25.97;;;19.83;;
19595;SDS011;9945;46.010;8.946;2023-01-06T11:54:20;24.90;;;19.27;;
19595;SDS011;9945;46.010;8.946;2023-01-06T11:59:50;24.13;;;19.30;;
19595;SDS011;9945;46.010;8.946;2023-01-06T12:02:29;23.23;;;19.17;;
19595;SDS011;9945;46.010;8.946;2023-01-06T12:04:58;25.23;;;20.00;;
19595;SDS011;9945;46.010;8.946;2023-01-06T12:07:32;23.93;;;19.53;;
19595;SDS011;9945;46.010;8.946;2023-01-06T12:10:07;25.00;;;19.03;;
19595;SDS011;9945;46.010;8.946;2023-01-06T12:12:38;26.87;;;20.87;;
19595;SDS011;9945;46.010;8.946;2023-01-06T12:15:08;28.37;;;20.53;;
19595;SDS011;9945;46.010;8.946;2023-01-06T12:17:39;23.50;;;19.63;;
19595;SDS011;9945;46.010;8.946;2023-01-06T12:20:10;26.70;;;19.10;;
19595;SDS011;9945;46.010;8.946;2023-01-06T12:22:45;23.90;;;19.70;;
19595;SDS011;9945;46.010;8.946;2023-01-06T12:25:16;22.40;;;19.77;;
19595;SDS011;9945;46.010;8.946;2023-01-06T12:27:46;23.40;;;18.93;;
19595;SDS011;9945;46.010;8.946;2023-01-06T12:30:17;25.07;;;19.57;;
19595;SDS011;9945;46.010;8.946;2023-01-06T12:32:49;26.97;;;20.70;;
19595;SDS011;9945;46.010;8.946;2023-01-06T12:35:23;22.13;;;19.23;;
19595;SDS011;9945;46.010;8.946;2023-01-06T12:37:57;23.43;;;19.67;;
19595;SDS011;9945;46.010;8.946;2023-01-06T12:40:29;25.00;;;19.93;;
19595;SDS011;9945;46.010;8.946;2023-01-06T12:43:02;23.00;;;19.50;;
19595;SDS011;9945;46.010;8.946;2023-01-06T12:45:38;25.07;;;19.10;;
19595;SDS011;9945;46.010;8.946;2023-01-06T12:48:14;25.43;;;19.67;;
19595;SDS011;9945;46.010;8.946;2023-01-06T12:50:46;24.87;;;19.67;;
19595;SDS011;9945;46.010;8.946;2023-01-06T12:53:21;24.30;;;19.93;;
19595;SDS011;9945;46.010;8.946;2023-01-06T12:55:56;24.60;;;20.53;;
19595;SDS011;9945;46.010;8.946;2023-01-06T12:58:36;28.10;;;20.90;;
19595;SDS011;9945;46.010;8.946;2023-01-06T13:01:14;25.47;;;20.40;;
19595;SDS011;9945;46.010;8.946;2023-01-06T13:03:55;25.63;;;20.07;;
19595;SDS011;9945;46.010;8.946;2023-01-06T13:06:36;23.47;;;19.30;;
19595;SDS011;9945;46.010;8.946;2023-01-06T13:09:19;25.13;;;19.90;;
19595;SDS011;9945;46.010;8.946;2023-01-06T13:12:19;25.43;;;19.90;;
19595;SDS011;9945;46.010;8.946;2023-01-06T13:15:02;25.87;;;21.27;;
19595;SDS011;9945;46.010;8.946;2023-01-06T13:17:38;28.10;;;21.43;;
19595;SDS011;9945;46.010;8.946;2023-01-06T13:20:13;28.97;;;21.87;;
19595;SDS011;9945;46.010;8.946;2023-01-06T13:22:46;28.20;;;22.03;;
19595;SDS011;9945;46.010;8.946;2023-01-06T13:25:32;27.43;;;21.73;;
19595;SDS011;9945;46.010;8.946;2023-01-06T13:28:10;28.87;;;22.20;;
19595;SDS011;9945;46.010;8.946;2023-01-06T13:30:53;26.73;;;21.97;;
19595;SDS011;9945;46.010;8.946;2023-01-06T13:34:04;26.80;;;21.63;;
19595;SDS011;9945;46.010;8.946;2023-01-06T13:36:48;25.13;;;20.93;;
19595;SDS011;9945;46.010;8.946;2023-01-06T13:39:28;28.70;;;22.10;;
19595;SDS011;9945;46.010;8.946;2023-01-06T13:42:00;26.07;;;20.83;;
19595;SDS011;9945;46.010;8.946;2023-01-06T13:44:31;29.77;;;22.53;;
19595;SDS011;9945;46.010;8.946;2023-01-06T13:47:03;24.53;;;20.10;;
19595;SDS011;9945;46.010;8.946;2023-01-06T13:49:34;28.07;;;21.47;;
19595;SDS011;9945;46.010;8.946;2023-01-06T13:52:03;25.03;;;20.47;;
19595;SDS011;9945;46.010;8.946;2023-01-06T13:57:32;27.20;;;21.40;;
19595;SDS011;9945;46.010;8.946;2023-01-06T14:00:14;30.53;;;22.70;;
19595;SDS011;9945;46.010;8.946;2023-01-06T14:02:59;29.73;;;21.90;;
19595;SDS011;9945;46.010;8.946;2023-01-06T14:05:53;27.70;;;22.57;;
19595;SDS011;9945;46.010;8.946;2023-01-06T14:08:23;28.03;;;22.10;;
19595;SDS011;9945;46.010;8.946;2023-01-06T14:10:57;30.97;;;22.57;;
19595;SDS011;9945;46.010;8.946;2023-01-06T14:13:28;31.10;;;23.43;;
19595;SDS011;9945;46.010;8.946;2023-01-06T14:15:57;31.23;;;23.07;;
19595;SDS011;9945;46.010;8.946;2023-01-06T14:18:30;30.57;;;23.23;;
19595;SDS011;9945;46.010;8.946;2023-01-06T14:21:02;31.17;;;24.00;;
19595;SDS011;9945;46.010;8.946;2023-01-06T14:23:31;28.50;;;22.30;;
19595;SDS011;9945;46.010;8.946;2023-01-06T14:25:58;30.83;;;23.37;;
19595;SDS011;9945;46.010;8.946;2023-01-06T14:28:28;31.47;;;24.10;;
19595;SDS011;9945;46.010;8.946;2023-01-06T14:34:02;30.80;;;22.67;;
19595;SDS011;9945;46.010;8.946;2023-01-06T14:36:35;29.93;;;22.57;;
19595;SDS011;9945;46.010;8.946;2023-01-06T14:39:03;30.77;;;24.00;;
19595;SDS011;9945;46.010;8.946;2023-01-06T14:41:35;30.87;;;23.67;;
19595;SDS011;9945;46.010;8.946;2023-01-06T14:44:12;28.97;;;23.07;;
19595;SDS011;9945;46.010;8.946;2023-01-06T14:46:42;31.20;;;23.93;;
19595;SDS011;9945;46.010;8.946;2023-01-06T14:49:13;31.27;;;22.30;;
19595;SDS011;9945;46.010;8.946;2023-01-06T14:51:43;33.73;;;24.50;;
19595;SDS011;9945;46.010;8.946;2023-01-06T14:54:13;33.03;;;23.73;;
19595;SDS011;9945;46.010;8.946;2023-01-06T14:56:53;30.63;;;22.70;;
19595;SDS011;9945;46.010;8.946;2023-01-06T14:59:23;34.13;;;23.40;;
19595;SDS011;9945;46.010;8.946;2023-01-06T15:01:55;30.20;;;22.20;;
19595;SDS011;9945;46.010;8.946;2023-01-06T15:04:26;28.37;;;21.67;;
19595;SDS011;9945;46.010;8.946;2023-01-06T15:06:59;27.83;;;21.77;;
19595;SDS011;9945;46.010;8.946;2023-01-06T15:09:30;32.03;;;23.73;;
19595;SDS011;9945;46.010;8.946;2023-01-06T15:11:57;31.03;;;22.47;;
19595;SDS011;9945;46.010;8.946;2023-01-06T15:14:26;29.63;;;22.43;;
19595;SDS011;9945;46.010;8.946;2023-01-06T15:16:54;27.23;;;22.17;;
19595;SDS011;9945;46.010;8.946;2023-01-06T15:19:23;34.23;;;23.53;;
19595;SDS011;9945;46.010;8.946;2023-01-06T15:21:51;30.07;;;22.60;;